Skardu Weather



Skardu's Current Weather

Temprature 13.362o broken clouds

broken clouds

Rain: 0 %

Min Temprature13.362o
Max Temprature13.362o
Humidity30
Wind Speed1.32 m/h
Sun Rise04:44:12
Sun Set19:16:03
Current Time: 26-Jun-2019 14:49:26
Lat/Lon: 35.29, 75.63




Skardu's Geo Location



Skardu's Weather Forecast

Time Overall Temp Min Temp Max Temp Humidity Wind Speed Rain
26-Jun-2019 (Wed)
17:00:00 broken clouds 12.350 12.350 12.350 35 0.72 m/h 0 %
20:00:00 scattered clouds 9.750 9.747 9.750 49 1.31 m/h 0 %
23:00:00 few clouds 9.740 9.740 9.740 46 0.97 m/h 0 %
27-Jun-2019 (Thu)
02:00:00 clear sky 8.180 8.179 8.180 42 1.86 m/h 0 %
05:00:00 clear sky 6.765 6.765 6.765 41 1.66 m/h 0 %
08:00:00 clear sky 9.650 9.650 9.650 27 0.97 m/h 0 %
11:00:00 clear sky 13.074 13.074 13.074 24 0.79 m/h 0 %
14:00:00 clear sky 15.350 15.350 15.350 19 1.17 m/h 0 %
17:00:00 light rain 11.480 11.480 11.480 42 5.51 m/h 63 %
20:00:00 light rain 7.594 7.594 7.594 62 1.37 m/h 100 %
23:00:00 light rain 8.435 8.435 8.435 56 1.15 m/h 6 %
28-Jun-2019 (Fri)
02:00:00 light rain 8.528 8.528 8.528 54 0.41 m/h 19 %
05:00:00 light rain 6.928 6.928 6.928 64 3.76 m/h 19 %
08:00:00 scattered clouds 9.019 9.019 9.019 53 2.09 m/h 0 %
11:00:00 few clouds 12.725 12.725 12.725 35 0.4 m/h 0 %
14:00:00 few clouds 15.431 15.431 15.431 26 0.63 m/h 0 %
17:00:00 scattered clouds 16.250 16.250 16.250 26 0.56 m/h 0 %
20:00:00 light rain 12.450 12.450 12.450 44 4.41 m/h 13 %
23:00:00 light rain 12.072 12.072 12.072 44 0.54 m/h 38 %
29-Jun-2019 (Sat)
02:00:00 broken clouds 11.272 11.272 11.272 54 0.35 m/h 0 %
05:00:00 light rain 9.739 9.739 9.739 57 0.98 m/h 31 %
08:00:00 clear sky 12.357 12.357 12.357 41 0.31 m/h 0 %
11:00:00 clear sky 15.450 15.450 15.450 28 1.45 m/h 0 %
14:00:00 scattered clouds 17.150 17.150 17.150 25 1.47 m/h 0 %
17:00:00 light rain 11.291 11.291 11.291 55 2.67 m/h 112 %
20:00:00 light rain 10.250 10.250 10.250 57 1.97 m/h 100 %
23:00:00 light rain 9.350 9.350 9.350 61 1.34 m/h 44 %
30-Jun-2019 (Sun)
02:00:00 light rain 8.836 8.836 8.836 64 1.03 m/h 19 %
05:00:00 light rain 8.812 8.812 8.812 65 0.97 m/h 19 %
08:00:00 light rain 11.362 11.362 11.362 49 0.25 m/h 19 %
11:00:00 light rain 14.918 14.918 14.918 35 1.22 m/h 112 %
14:00:00 overcast clouds 16.708 16.708 16.708 31 2.26 m/h 0 %
17:00:00 overcast clouds 14.050 14.050 14.050 43 3.92 m/h 0 %
20:00:00 overcast clouds 13.650 13.650 13.650 41 1.04 m/h 0 %
23:00:00 overcast clouds 12.650 12.650 12.650 52 0.81 m/h 0 %
01-Jul-2019 (Mon)
02:00:00 scattered clouds 11.350 11.350 11.350 56 2.34 m/h 0 %
05:00:00 scattered clouds 10.135 10.135 10.135 58 1.66 m/h 0 %
08:00:00 clear sky 13.250 13.250 13.250 40 1.33 m/h 0 %
11:00:00 clear sky 16.550 16.550 16.550 28 0.49 m/h 0 %
14:00:00 clear sky 19.050 19.050 19.050 20 1.41 m/h 0 %


Skardu's Tourist Spots

Hotels and Restaurants in Skardu

Famous Cities (60)